Time,TemperatureF,DewpointF,PressureIn,WindDirection,WindDirectionDegrees,WindSpeedMPH,WindSpeedGustMPH,Humidity,HourlyPrecipIn,Conditions,Clouds,dailyrainin,SolarRadiationWatts/m^2,SoftwareType,DateUTC
2013-06-20 00:01:00,57.8,53.6,30.13,ENE,71,0.0,0.0,86,0.00,,,0.00,0,HR-IXPWINDi_r2_v1.2.,2013-06-20 04:01:00,
2013-06-20 00:06:00,57.6,53.4,30.13,ENE,71,0.0,0.0,86,0.00,,,0.00,0,HR-IXPWINDi_r2_v1.2.,2013-06-20 04:06:00,
2013-06-20 00:11:00,57.5,53.3,30.13,ENE,71,0.0,0.0,86,0.00,,,0.00,0,HR-IXPWINDi_r2_v1.2.,2013-06-20 04:11:00,
2013-06-20 00:16:00,57.5,53.6,30.13,ENE,71,0.0,0.0,87,0.00,,,0.00,0,HR-IXPWINDi_r2_v1.2.,2013-06-20 04:16:00,
2013-06-20 00:21:00,57.5,53.6,30.13,ENE,71,0.0,0.0,87,0.00,,,0.00,0,HR-IXPWINDi_r2_v1.2.,2013-06-20 04:21:00,
2013-06-20 00:27:00,57.5,53.6,30.13,ENE,71,0.0,0.0,87,0.00,,,0.00,0,HR-IXPWINDi_r2_v1.2.,2013-06-20 04:27:00,
2013-06-20 00:32:00,57.5,53.6,30.13,ENE,71,0.0,0.0,87,0.00,,,0.00,0,HR-IXPWINDi_r2_v1.2.,2013-06-20 04:32:00,
2013-06-20 00:37:00,57.3,53.4,30.14,ENE,71,0.0,0.0,87,0.00,,,0.00,0,HR-IXPWINDi_r2_v1.2.,2013-06-20 04:37:00,
2013-06-20 00:42:00,57.3,53.4,30.14,ENE,71,0.0,0.0,87,0.00,,,0.00,0,HR-IXPWINDi_r2_v1.2.,2013-06-20 04:42:00,
2013-06-20 00:47:00,57.2,53.3,30.14,ENE,71,0.0,0.0,87,0.00,,,0.00,0,HR-IXPWINDi_r2_v1.2.,2013-06-20 04:47:00,
2013-06-20 00:53:00,57.2,53.3,30.13,ENE,71,0.0,0.0,87,0.00,,,0.00,0,HR-IXPWINDi_r2_v1.2.,2013-06-20 04:53:00,
2013-06-20 00:58:00,57.0,53.1,30.13,ENE,71,0.0,0.0,87,0.00,,,0.00,0,HR-IXPWINDi_r2_v1.2.,2013-06-20 04:58:00,
2013-06-20 01:03:00,57.0,53.1,30.13,ENE,71,0.0,0.0,87,0.00,,,0.00,0,HR-IXPWINDi_r2_v1.2.,2013-06-20 05:03:00,
2013-06-20 01:08:00,56.9,53.0,30.14,ENE,71,0.0,0.0,87,0.00,,,0.00,0,HR-IXPWINDi_r2_v1.2.,2013-06-20 05:08:00,
2013-06-20 01:13:00,56.9,53.3,30.14,ENE,71,0.0,0.0,88,0.00,,,0.00,0,HR-IXPWINDi_r2_v1.2.,2013-06-20 05:13:00,
2013-06-20 01:19:00,56.7,53.1,30.14,ENE,71,0.0,0.0,88,0.00,,,0.00,0,HR-IXPWINDi_r2_v1.2.,2013-06-20 05:19:00,
2013-06-20 01:24:00,56.7,53.1,30.14,ENE,71,0.0,0.0,88,0.00,,,0.00,0,HR-IXPWINDi_r2_v1.2.,2013-06-20 05:24:00,
2013-06-20 01:29:00,56.6,53.0,30.14,ENE,71,0.0,0.0,88,0.00,,,0.00,0,HR-IXPWINDi_r2_v1.2.,2013-06-20 05:29:00,
2013-06-20 01:34:00,56.5,52.9,30.14,ENE,71,0.0,0.0,88,0.00,,,0.00,0,HR-IXPWINDi_r2_v1.2.,2013-06-20 05:34:00,
2013-06-20 01:39:00,56.3,52.7,30.15,ENE,71,0.0,0.0,88,0.00,,,0.00,0,HR-IXPWINDi_r2_v1.2.,2013-06-20 05:39:00,
2013-06-20 01:44:00,56.2,52.9,30.15,ENE,71,0.0,0.0,89,0.00,,,0.00,0,HR-IXPWINDi_r2_v1.2.,2013-06-20 05:44:00,
2013-06-20 01:49:00,56.2,52.9,30.15,ENE,71,0.0,0.0,89,0.00,,,0.00,0,HR-IXPWINDi_r2_v1.2.,2013-06-20 05:49:00,
2013-06-20 01:55:00,56.0,52.7,30.15,ENE,71,0.0,0.0,89,0.00,,,0.00,0,HR-IXPWINDi_r2_v1.2.,2013-06-20 05:55:00,
2013-06-20 02:00:00,56.0,52.7,30.15,ENE,71,0.0,0.0,89,0.00,,,0.00,0,HR-IXPWINDi_r2_v1.2.,2013-06-20 06:00:00,
2013-06-20 02:05:00,55.9,52.6,30.15,ENE,71,0.0,0.0,89,0.00,,,0.00,0,HR-IXPWINDi_r2_v1.2.,2013-06-20 06:05:00,
2013-06-20 02:10:00,55.7,52.4,30.15,ENE,71,0.0,0.0,89,0.00,,,0.00,0,HR-IXPWINDi_r2_v1.2.,2013-06-20 06:10:00,
2013-06-20 02:15:00,55.9,52.6,30.15,ENE,71,0.0,0.0,89,0.00,,,0.00,0,HR-IXPWINDi_r2_v1.2.,2013-06-20 06:15:00,
2013-06-20 02:21:00,55.9,52.9,30.15,ENE,71,0.0,0.0,90,0.00,,,0.00,0,HR-IXPWINDi_r2_v1.2.,2013-06-20 06:21:00,
2013-06-20 02:26:00,55.9,52.9,30.15,ENE,71,0.0,0.0,90,0.00,,,0.00,0,HR-IXPWINDi_r2_v1.2.,2013-06-20 06:26:00,
2013-06-20 02:31:00,55.7,52.7,30.15,ENE,71,0.0,0.0,90,0.00,,,0.00,0,HR-IXPWINDi_r2_v1.2.,2013-06-20 06:31:00,
2013-06-20 02:36:00,55.7,52.7,30.15,ENE,71,0.0,0.0,90,0.00,,,0.00,0,HR-IXPWINDi_r2_v1.2.,2013-06-20 06:36:00,
2013-06-20 02:41:00,55.6,52.6,30.15,ENE,71,0.0,0.0,90,0.00,,,0.00,0,HR-IXPWINDi_r2_v1.2.,2013-06-20 06:41:00,
2013-06-20 02:46:00,55.6,52.6,30.15,ENE,71,0.0,0.0,90,0.00,,,0.00,0,HR-IXPWINDi_r2_v1.2.,2013-06-20 06:46:00,
2013-06-20 02:51:00,55.6,52.6,30.15,ENE,71,0.0,0.0,90,0.00,,,0.00,0,HR-IXPWINDi_r2_v1.2.,2013-06-20 06:51:00,
2013-06-20 02:57:00,55.4,52.4,30.15,ENE,71,0.0,0.0,90,0.00,,,0.00,0,HR-IXPWINDi_r2_v1.2.,2013-06-20 06:57:00,
2013-06-20 03:02:00,55.4,52.4,30.15,ENE,71,0.0,0.0,90,0.00,,,0.00,0,HR-IXPWINDi_r2_v1.2.,2013-06-20 07:02:00,
2013-06-20 03:07:00,55.3,52.7,30.16,ENE,71,0.0,0.0,91,0.00,,,0.00,0,HR-IXPWINDi_r2_v1.2.,2013-06-20 07:07:00,
2013-06-20 03:12:00,55.1,52.2,30.16,ENE,71,0.0,0.0,90,0.00,,,0.00,0,HR-IXPWINDi_r2_v1.2.,2013-06-20 07:12:00,
2013-06-20 03:18:00,55.0,52.4,30.16,ENE,71,0.0,0.0,91,0.00,,,0.00,0,HR-IXPWINDi_r2_v1.2.,2013-06-20 07:18:00,
2013-06-20 03:23:00,55.0,52.4,30.16,ENE,71,0.0,0.0,91,0.00,,,0.00,0,HR-IXPWINDi_r2_v1.2.,2013-06-20 07:23:00,
2013-06-20 03:28:00,55.0,52.4,30.16,ENE,71,0.0,0.0,91,0.00,,,0.00,0,HR-IXPWINDi_r2_v1.2.,2013-06-20 07:28:00,
2013-06-20 03:33:00,55.1,52.5,30.16,ENE,71,0.0,0.0,91,0.00,,,0.00,0,HR-IXPWINDi_r2_v1.2.,2013-06-20 07:33:00,
2013-06-20 03:39:00,55.1,52.5,30.16,ENE,71,0.0,0.0,91,0.00,,,0.00,0,HR-IXPWINDi_r2_v1.2.,2013-06-20 07:39:00,
2013-06-20 03:44:00,55.1,52.5,30.16,ENE,71,0.0,0.0,91,0.00,,,0.00,0,HR-IXPWINDi_r2_v1.2.,2013-06-20 07:44:00,
2013-06-20 03:49:00,55.1,52.5,30.16,ENE,71,0.0,0.0,91,0.00,,,0.00,0,HR-IXPWINDi_r2_v1.2.,2013-06-20 07:49:00,
2013-06-20 03:54:00,55.1,52.5,30.16,ENE,71,0.0,0.0,91,0.00,,,0.00,0,HR-IXPWINDi_r2_v1.2.,2013-06-20 07:54:00,
2013-06-20 03:59:00,55.0,52.4,30.16,ENE,71,0.0,0.0,91,0.00,,,0.00,0,HR-IXPWINDi_r2_v1.2.,2013-06-20 07:59:00,
2013-06-20 04:04:00,54.8,52.2,30.16,ENE,71,0.0,0.0,91,0.00,,,0.00,0,HR-IXPWINDi_r2_v1.2.,2013-06-20 08:04:00,
2013-06-20 04:10:00,54.8,52.2,30.16,ENE,71,0.0,0.0,91,0.00,,,0.00,0,HR-IXPWINDi_r2_v1.2.,2013-06-20 08:10:00,
2013-06-20 04:15:00,54.8,52.5,30.16,ENE,71,0.0,0.0,92,0.00,,,0.00,0,HR-IXPWINDi_r2_v1.2.,2013-06-20 08:15:00,
2013-06-20 04:20:00,55.0,52.7,30.16,ENE,71,0.0,0.0,92,0.00,,,0.00,0,HR-IXPWINDi_r2_v1.2.,2013-06-20 08:20:00,
2013-06-20 04:25:00,55.1,52.8,30.16,ENE,65,0.0,0.0,92,0.00,,,0.00,0,HR-IXPWINDi_r2_v1.2.,2013-06-20 08:25:00,
2013-06-20 04:30:00,55.1,52.8,30.16,ENE,71,0.0,0.0,92,0.00,,,0.00,0,HR-IXPWINDi_r2_v1.2.,2013-06-20 08:30:00,
2013-06-20 04:36:00,55.0,52.7,30.17,ENE,71,0.0,0.0,92,0.00,,,0.00,0,HR-IXPWINDi_r2_v1.2.,2013-06-20 08:36:00,
2013-06-20 04:41:00,55.0,52.7,30.17,ENE,71,0.0,0.0,92,0.00,,,0.00,0,HR-IXPWINDi_r2_v1.2.,2013-06-20 08:41:00,
2013-06-20 04:46:00,54.8,52.5,30.17,ENE,71,0.0,0.0,92,0.00,,,0.00,0,HR-IXPWINDi_r2_v1.2.,2013-06-20 08:46:00,
2013-06-20 04:51:00,54.8,52.5,30.17,ENE,71,0.0,0.0,92,0.00,,,0.00,0,HR-IXPWINDi_r2_v1.2.,2013-06-20 08:51:00,
2013-06-20 04:56:00,54.8,52.5,30.17,ENE,71,0.0,0.0,92,0.00,,,0.00,0,HR-IXPWINDi_r2_v1.2.,2013-06-20 08:56:00,
2013-06-20 05:02:00,54.8,52.5,30.17,ENE,71,0.0,0.0,92,0.00,,,0.00,0,HR-IXPWINDi_r2_v1.2.,2013-06-20 09:02:00,
2013-06-20 05:07:00,54.8,52.5,30.18,ENE,71,0.0,0.0,92,0.00,,,0.00,0,HR-IXPWINDi_r2_v1.2.,2013-06-20 09:07:00,
2013-06-20 05:12:00,55.0,52.7,30.18,ENE,71,0.0,0.0,92,0.00,,,0.00,0,HR-IXPWINDi_r2_v1.2.,2013-06-20 09:12:00,
2013-06-20 05:17:00,55.0,52.7,30.18,ENE,71,0.0,0.0,92,0.00,,,0.00,0,HR-IXPWINDi_r2_v1.2.,2013-06-20 09:17:00,
2013-06-20 05:22:00,55.0,52.7,30.18,ENE,71,0.0,0.0,92,0.00,,,0.00,0,HR-IXPWINDi_r2_v1.2.,2013-06-20 09:22:00,
2013-06-20 05:28:00,54.8,52.5,30.18,ENE,71,0.0,0.0,92,0.00,,,0.00,0,HR-IXPWINDi_r2_v1.2.,2013-06-20 09:28:00,
2013-06-20 05:33:00,54.8,52.5,30.18,ENE,71,0.0,0.0,92,0.00,,,0.00,0,HR-IXPWINDi_r2_v1.2.,2013-06-20 09:33:00,
2013-06-20 05:38:00,55.0,52.7,30.18,ENE,71,0.0,0.0,92,0.00,,,0.00,0,HR-IXPWINDi_r2_v1.2.,2013-06-20 09:38:00,
2013-06-20 05:43:00,54.8,52.5,30.18,ENE,71,0.0,0.0,92,0.00,,,0.00,0,HR-IXPWINDi_r2_v1.2.,2013-06-20 09:43:00,
2013-06-20 05:48:00,54.8,52.5,30.18,ENE,71,0.0,0.0,92,0.00,,,0.00,5,HR-IXPWINDi_r2_v1.2.,2013-06-20 09:48:00,
2013-06-20 05:53:00,55.0,52.7,30.19,ENE,71,0.0,0.0,92,0.00,,,0.00,9,HR-IXPWINDi_r2_v1.2.,2013-06-20 09:53:00,
2013-06-20 05:59:00,55.0,52.7,30.19,ENE,71,0.0,0.0,92,0.00,,,0.00,11,HR-IXPWINDi_r2_v1.2.,2013-06-20 09:59:00,
2013-06-20 06:04:00,55.1,52.8,30.19,ENE,71,0.0,0.0,92,0.00,,,0.00,12,HR-IXPWINDi_r2_v1.2.,2013-06-20 10:04:00,
2013-06-20 06:09:00,55.3,52.9,30.19,ENE,71,0.0,0.0,92,0.00,,,0.00,14,HR-IXPWINDi_r2_v1.2.,2013-06-20 10:09:00,
2013-06-20 06:14:00,55.4,53.0,30.19,ENE,71,0.0,0.0,92,0.00,,,0.00,16,HR-IXPWINDi_r2_v1.2.,2013-06-20 10:14:00,
2013-06-20 06:19:00,55.4,53.0,30.19,ENE,71,0.0,0.0,92,0.00,,,0.00,21,HR-IXPWINDi_r2_v1.2.,2013-06-20 10:19:00,
2013-06-20 06:24:00,55.7,53.3,30.20,ENE,71,0.0,0.0,92,0.00,,,0.00,69,HR-IXPWINDi_r2_v1.2.,2013-06-20 10:24:00,
2013-06-20 06:29:00,55.7,53.3,30.20,ENE,71,0.0,0.0,92,0.00,,,0.00,42,HR-IXPWINDi_r2_v1.2.,2013-06-20 10:29:00,
2013-06-20 06:35:00,56.0,53.9,30.21,ENE,71,0.0,0.0,93,0.00,,,0.00,28,HR-IXPWINDi_r2_v1.2.,2013-06-20 10:35:00,
2013-06-20 06:40:00,56.2,54.1,30.21,ENE,71,0.0,0.0,93,0.00,,,0.00,32,HR-IXPWINDi_r2_v1.2.,2013-06-20 10:40:00,
2013-06-20 06:45:00,56.3,54.2,30.21,ENE,71,0.0,0.0,93,0.00,,,0.00,26,HR-IXPWINDi_r2_v1.2.,2013-06-20 10:45:00,
2013-06-20 06:50:00,56.5,54.4,30.21,ENE,71,0.0,0.0,93,0.00,,,0.00,26,HR-IXPWINDi_r2_v1.2.,2013-06-20 10:50:00,
2013-06-20 06:55:00,56.7,54.6,30.21,ENE,71,0.0,0.0,93,0.00,,,0.00,26,HR-IXPWINDi_r2_v1.2.,2013-06-20 10:55:00,
2013-06-20 07:01:00,57.0,54.9,30.21,ENE,71,0.0,0.0,93,0.00,,,0.00,28,HR-IXPWINDi_r2_v1.2.,2013-06-20 11:01:00,
2013-06-20 07:06:00,57.3,55.2,30.21,ENE,71,0.0,0.0,93,0.00,,,0.00,33,HR-IXPWINDi_r2_v1.2.,2013-06-20 11:06:00,
2013-06-20 07:11:00,57.8,55.4,30.21,ENE,71,0.0,0.0,92,0.00,,,0.00,30,HR-IXPWINDi_r2_v1.2.,2013-06-20 11:11:00,
2013-06-20 07:16:00,58.1,55.7,30.21,ENE,71,0.0,0.0,92,0.00,,,0.00,33,HR-IXPWINDi_r2_v1.2.,2013-06-20 11:16:00,
2013-06-20 07:21:00,58.4,56.0,30.21,ENE,71,0.0,0.0,92,0.00,,,0.00,83,HR-IXPWINDi_r2_v1.2.,2013-06-20 11:21:00,
2013-06-20 07:26:00,58.9,56.5,30.21,ENE,71,0.0,0.0,92,0.00,,,0.00,46,HR-IXPWINDi_r2_v1.2.,2013-06-20 11:26:00,
2013-06-20 07:31:00,59.2,56.5,30.21,ENE,71,0.0,0.0,91,0.00,,,0.00,42,HR-IXPWINDi_r2_v1.2.,2013-06-20 11:31:00,
2013-06-20 07:37:00,59.5,56.5,30.21,ENE,71,0.0,0.0,90,0.00,,,0.00,44,HR-IXPWINDi_r2_v1.2.,2013-06-20 11:37:00,
2013-06-20 07:42:00,59.9,56.6,30.21,ENE,71,0.0,0.0,89,0.00,,,0.00,40,HR-IXPWINDi_r2_v1.2.,2013-06-20 11:42:00,
2013-06-20 07:47:00,60.2,56.9,30.21,ENE,71,0.0,0.0,89,0.00,,,0.00,42,HR-IXPWINDi_r2_v1.2.,2013-06-20 11:47:00,
2013-06-20 07:52:00,60.5,56.9,30.21,ENE,71,0.0,0.0,88,0.00,,,0.00,40,HR-IXPWINDi_r2_v1.2.,2013-06-20 11:52:00,
2013-06-20 07:57:00,60.7,56.7,30.21,ENE,71,0.0,0.0,87,0.00,,,0.00,55,HR-IXPWINDi_r2_v1.2.,2013-06-20 11:57:00,
2013-06-20 08:03:00,61.2,57.2,30.21,ENE,71,0.0,0.0,87,0.00,,,0.00,42,HR-IXPWINDi_r2_v1.2.,2013-06-20 12:03:00,
2013-06-20 08:08:00,61.8,57.2,30.21,ENE,71,0.0,0.0,85,0.00,,,0.00,42,HR-IXPWINDi_r2_v1.2.,2013-06-20 12:08:00,
2013-06-20 08:13:00,62.4,56.8,30.21,ENE,71,0.0,0.0,82,0.00,,,0.00,44,HR-IXPWINDi_r2_v1.2.,2013-06-20 12:13:00,
2013-06-20 08:18:00,63.2,56.5,30.21,ENE,71,0.0,2.0,79,0.00,,,0.00,44,HR-IXPWINDi_r2_v1.2.,2013-06-20 12:18:00,
2013-06-20 08:24:00,63.7,56.6,30.21,ENE,71,0.0,2.0,78,0.00,,,0.00,46,HR-IXPWINDi_r2_v1.2.,2013-06-20 12:24:00,
2013-06-20 08:29:00,64.2,56.8,30.21,ENE,71,0.0,1.0,77,0.00,,,0.00,48,HR-IXPWINDi_r2_v1.2.,2013-06-20 12:29:00,
2013-06-20 08:34:00,64.5,56.7,30.21,ENE,71,0.0,2.0,76,0.00,,,0.00,48,HR-IXPWINDi_r2_v1.2.,2013-06-20 12:34:00,
2013-06-20 08:39:00,65.0,56.4,30.21,ENE,71,0.0,2.0,74,0.00,,,0.00,49,HR-IXPWINDi_r2_v1.2.,2013-06-20 12:39:00,
2013-06-20 08:44:00,65.0,56.1,30.21,ENE,71,0.0,2.0,73,0.00,,,0.00,53,HR-IXPWINDi_r2_v1.2.,2013-06-20 12:44:00,
2013-06-20 08:50:00,65.5,56.6,30.21,ENE,71,0.0,2.0,73,0.00,,,0.00,53,HR-IXPWINDi_r2_v1.2.,2013-06-20 12:50:00,
2013-06-20 08:55:00,65.6,56.3,30.21,ENE,71,0.0,2.0,72,0.00,,,0.00,67,HR-IXPWINDi_r2_v1.2.,2013-06-20 12:55:00,
2013-06-20 09:00:00,65.8,56.5,30.21,ENE,71,1.0,2.0,72,0.00,,,0.00,93,HR-IXPWINDi_r2_v1.2.,2013-06-20 13:00:00,
2013-06-20 09:05:00,66.4,56.3,30.21,ENE,71,2.0,3.0,70,0.00,,,0.00,148,HR-IXPWINDi_r2_v1.2.,2013-06-20 13:05:00,
2013-06-20 09:10:00,66.8,56.6,30.21,ENE,71,0.0,3.0,70,0.00,,,0.00,86,HR-IXPWINDi_r2_v1.2.,2013-06-20 13:10:00,
2013-06-20 09:16:00,66.8,56.2,30.21,ENE,71,0.0,2.0,69,0.00,,,0.00,76,HR-IXPWINDi_r2_v1.2.,2013-06-20 13:16:00,
2013-06-20 09:21:00,67.1,56.5,30.21,ENE,71,0.0,0.0,69,0.00,,,0.00,86,HR-IXPWINDi_r2_v1.2.,2013-06-20 13:21:00,
2013-06-20 09:26:00,67.3,56.7,30.21,East,95,0.0,3.0,69,0.00,,,0.00,63,HR-IXPWINDi_r2_v1.2.,2013-06-20 13:26:00,
2013-06-20 09:32:00,67.4,56.8,30.21,East,93,0.0,3.0,69,0.00,,,0.00,69,HR-IXPWINDi_r2_v1.2.,2013-06-20 13:32:00,
2013-06-20 09:37:00,67.8,57.2,30.21,East,93,0.0,1.0,69,0.00,,,0.00,67,HR-IXPWINDi_r2_v1.2.,2013-06-20 13:37:00,
2013-06-20 09:42:00,68.1,57.5,30.21,East,93,2.0,2.0,69,0.00,,,0.00,67,HR-IXPWINDi_r2_v1.2.,2013-06-20 13:42:00,
2013-06-20 09:47:00,68.3,57.7,30.21,East,93,0.0,2.0,69,0.00,,,0.00,74,HR-IXPWINDi_r2_v1.2.,2013-06-20 13:47:00,
2013-06-20 09:52:00,68.4,57.4,30.21,East,93,0.0,2.0,68,0.00,,,0.00,77,HR-IXPWINDi_r2_v1.2.,2013-06-20 13:52:00,
2013-06-20 09:57:00,68.4,57.0,30.21,ESE,112,0.0,2.0,67,0.00,,,0.00,100,HR-IXPWINDi_r2_v1.2.,2013-06-20 13:57:00,
2013-06-20 10:03:00,68.8,57.7,30.21,ESE,112,0.0,2.0,68,0.00,,,0.00,93,HR-IXPWINDi_r2_v1.2.,2013-06-20 14:03:00,
2013-06-20 10:08:00,68.9,57.4,30.21,ESE,112,1.0,1.0,67,0.00,,,0.00,72,HR-IXPWINDi_r2_v1.2.,2013-06-20 14:08:00,
2013-06-20 10:13:00,69.1,56.8,30.21,SW,236,0.0,3.0,65,0.00,,,0.00,76,HR-IXPWINDi_r2_v1.2.,2013-06-20 14:13:00,
2013-06-20 10:18:00,69.3,57.4,30.21,WSW,239,0.0,3.0,66,0.00,,,0.00,81,HR-IXPWINDi_r2_v1.2.,2013-06-20 14:18:00,
2013-06-20 10:24:00,69.6,57.3,30.21,WSW,239,0.0,2.0,65,0.00,,,0.00,146,HR-IXPWINDi_r2_v1.2.,2013-06-20 14:24:00,
2013-06-20 10:29:00,69.8,57.4,30.21,North,11,0.0,3.0,65,0.00,,,0.00,169,HR-IXPWINDi_r2_v1.2.,2013-06-20 14:29:00,
2013-06-20 10:34:00,69.9,56.2,30.21,North,356,1.0,3.0,62,0.00,,,0.00,93,HR-IXPWINDi_r2_v1.2.,2013-06-20 14:34:00,
2013-06-20 10:39:00,70.3,55.7,30.21,North,0,0.0,2.0,60,0.00,,,0.00,77,HR-IXPWINDi_r2_v1.2.,2013-06-20 14:39:00,
2013-06-20 10:45:00,70.6,56.0,30.21,North,0,1.0,2.0,60,0.00,,,0.00,97,HR-IXPWINDi_r2_v1.2.,2013-06-20 14:45:00,
2013-06-20 10:50:00,70.6,54.1,30.22,North,0,1.0,2.0,56,0.00,,,0.00,83,HR-IXPWINDi_r2_v1.2.,2013-06-20 14:50:00,
2013-06-20 10:55:00,70.9,53.9,30.22,NNW,344,0.0,2.0,55,0.00,,,0.00,81,HR-IXPWINDi_r2_v1.2.,2013-06-20 14:55:00,
2013-06-20 11:00:00,71.1,54.6,30.22,NNW,344,2.0,2.0,56,0.00,,,0.00,127,HR-IXPWINDi_r2_v1.2.,2013-06-20 15:00:00,
2013-06-20 11:05:00,71.3,53.7,30.22,SE,127,0.0,4.0,54,0.00,,,0.00,135,HR-IXPWINDi_r2_v1.2.,2013-06-20 15:05:00,
2013-06-20 11:10:00,71.5,53.4,30.22,SE,127,2.0,4.0,53,0.00,,,0.00,83,HR-IXPWINDi_r2_v1.2.,2013-06-20 15:10:00,
2013-06-20 11:16:00,71.6,54.0,30.22,ESE,121,0.0,2.0,54,0.00,,,0.00,83,HR-IXPWINDi_r2_v1.2.,2013-06-20 15:16:00,
2013-06-20 11:21:00,71.8,54.2,30.22,SSE,164,3.0,3.0,54,0.00,,,0.00,84,HR-IXPWINDi_r2_v1.2.,2013-06-20 15:21:00,
2013-06-20 11:26:00,72.0,54.4,30.22,SSE,161,2.0,3.0,54,0.00,,,0.00,84,HR-IXPWINDi_r2_v1.2.,2013-06-20 15:26:00,
2013-06-20 11:31:00,72.1,54.5,30.22,SSE,158,0.0,3.0,54,0.00,,,0.00,88,HR-IXPWINDi_r2_v1.2.,2013-06-20 15:31:00,
2013-06-20 11:36:00,72.1,53.5,30.22,South,175,2.0,3.0,52,0.00,,,0.00,88,HR-IXPWINDi_r2_v1.2.,2013-06-20 15:36:00,
2013-06-20 11:41:00,72.3,53.6,30.22,South,172,0.0,5.0,52,0.00,,,0.00,90,HR-IXPWINDi_r2_v1.2.,2013-06-20 15:41:00,
2013-06-20 11:46:00,72.5,54.3,30.22,South,174,2.0,5.0,53,0.00,,,0.00,99,HR-IXPWINDi_r2_v1.2.,2013-06-20 15:46:00,
2013-06-20 11:51:00,72.7,55.0,30.22,South,174,0.0,3.0,54,0.00,,,0.00,95,HR-IXPWINDi_r2_v1.2.,2013-06-20 15:51:00,
2013-06-20 11:57:00,73.0,55.3,30.22,South,174,1.0,3.0,54,0.00,,,0.00,99,HR-IXPWINDi_r2_v1.2.,2013-06-20 15:57:00,
2013-06-20 12:02:00,73.0,54.3,30.22,South,182,0.0,3.0,52,0.00,,,0.00,123,HR-IXPWINDi_r2_v1.2.,2013-06-20 16:02:00,
2013-06-20 12:07:00,73.3,52.9,30.22,South,182,0.0,3.0,49,0.00,,,0.00,885,HR-IXPWINDi_r2_v1.2.,2013-06-20 16:07:00,
2013-06-20 12:12:00,73.9,52.4,30.22,South,182,1.0,2.0,47,0.00,,,0.00,908,HR-IXPWINDi_r2_v1.2.,2013-06-20 16:12:00,
2013-06-20 12:17:00,74.4,51.6,30.22,West,261,1.0,4.0,45,0.00,,,0.00,910,HR-IXPWINDi_r2_v1.2.,2013-06-20 16:17:00,
2013-06-20 12:23:00,74.6,52.4,30.21,West,278,0.0,4.0,46,0.00,,,0.00,924,HR-IXPWINDi_r2_v1.2.,2013-06-20 16:23:00,
2013-06-20 12:28:00,75.1,49.8,30.21,SSE,162,0.0,3.0,41,0.00,,,0.00,924,HR-IXPWINDi_r2_v1.2.,2013-06-20 16:28:00,
2013-06-20 12:33:00,75.1,51.0,30.21,SSE,162,3.0,5.0,43,0.00,,,0.00,927,HR-IXPWINDi_r2_v1.2.,2013-06-20 16:33:00,
2013-06-20 12:38:00,74.7,51.9,30.21,East,88,1.0,5.0,45,0.00,,,0.00,943,HR-IXPWINDi_r2_v1.2.,2013-06-20 16:38:00,
2013-06-20 12:43:00,74.9,47.5,30.21,East,90,0.0,3.0,38,0.00,,,0.00,926,HR-IXPWINDi_r2_v1.2.,2013-06-20 16:43:00,
2013-06-20 12:49:00,75.1,51.7,30.21,East,93,0.0,4.0,44,0.00,,,0.00,936,HR-IXPWINDi_r2_v1.2.,2013-06-20 16:49:00,
2013-06-20 12:54:00,75.8,52.3,30.21,ENE,75,0.0,4.0,44,0.00,,,0.00,931,HR-IXPWINDi_r2_v1.2.,2013-06-20 16:54:00,
2013-06-20 12:59:00,76.3,50.2,30.21,South,182,0.0,3.0,40,0.00,,,0.00,927,HR-IXPWINDi_r2_v1.2.,2013-06-20 16:59:00,
2013-06-20 13:04:00,76.5,52.3,30.21,SSE,155,1.0,3.0,43,0.00,,,0.00,936,HR-IXPWINDi_r2_v1.2.,2013-06-20 17:04:00,
2013-06-20 13:09:00,77.0,50.8,30.21,South,184,0.0,3.0,40,0.00,,,0.00,957,HR-IXPWINDi_r2_v1.2.,2013-06-20 17:09:00,
2013-06-20 13:14:00,77.2,51.0,30.21,South,184,0.0,3.0,40,0.00,,,0.00,952,HR-IXPWINDi_r2_v1.2.,2013-06-20 17:14:00,
2013-06-20 13:20:00,77.4,49.1,30.21,South,179,0.0,2.0,37,0.00,,,0.00,957,HR-IXPWINDi_r2_v1.2.,2013-06-20 17:20:00,
2013-06-20 13:25:00,77.6,52.7,30.21,South,181,0.0,2.0,42,0.00,,,0.00,970,HR-IXPWINDi_r2_v1.2.,2013-06-20 17:25:00,
2013-06-20 13:30:00,78.5,48.5,30.21,SW,220,0.0,2.0,35,0.00,,,0.00,957,HR-IXPWINDi_r2_v1.2.,2013-06-20 17:30:00,
2013-06-20 13:35:00,79.0,51.2,30.20,SW,220,3.0,3.0,38,0.00,,,0.00,955,HR-IXPWINDi_r2_v1.2.,2013-06-20 17:35:00,
2013-06-20 13:40:00,78.5,52.1,30.20,SSW,195,0.0,3.0,40,0.00,,,0.00,169,HR-IXPWINDi_r2_v1.2.,2013-06-20 17:40:00,
2013-06-20 13:46:00,77.4,52.5,30.20,South,189,1.0,3.0,42,0.00,,,0.00,984,HR-IXPWINDi_r2_v1.2.,2013-06-20 17:46:00,
2013-06-20 13:51:00,77.4,53.1,30.20,South,191,0.0,3.0,43,0.00,,,0.00,955,HR-IXPWINDi_r2_v1.2.,2013-06-20 17:51:00,
2013-06-20 13:56:00,77.4,50.5,30.20,SSE,162,0.0,3.0,39,0.00,,,0.00,906,HR-IXPWINDi_r2_v1.2.,2013-06-20 17:56:00,
2013-06-20 14:01:00,77.4,51.8,30.20,SSE,162,0.0,3.0,41,0.00,,,0.00,903,HR-IXPWINDi_r2_v1.2.,2013-06-20 18:01:00,
2013-06-20 14:06:00,77.0,50.1,30.19,SSE,160,1.0,3.0,39,0.00,,,0.00,908,HR-IXPWINDi_r2_v1.2.,2013-06-20 18:06:00,
2013-06-20 14:12:00,77.4,51.2,30.19,ENE,71,1.0,3.0,40,0.00,,,0.00,899,HR-IXPWINDi_r2_v1.2.,2013-06-20 18:12:00,
2013-06-20 14:17:00,78.1,51.1,30.19,ESE,110,3.0,3.0,39,0.00,,,0.00,890,HR-IXPWINDi_r2_v1.2.,2013-06-20 18:17:00,
2013-06-20 14:22:00,78.1,52.4,30.19,ENE,65,2.0,3.0,41,0.00,,,0.00,897,HR-IXPWINDi_r2_v1.2.,2013-06-20 18:22:00,
2013-06-20 14:27:00,78.3,50.6,30.19,South,186,0.0,3.0,38,0.00,,,0.00,908,HR-IXPWINDi_r2_v1.2.,2013-06-20 18:27:00,
2013-06-20 14:32:00,78.1,51.1,30.19,South,182,0.0,3.0,39,0.00,,,0.00,158,HR-IXPWINDi_r2_v1.2.,2013-06-20 18:32:00,
2013-06-20 14:38:00,78.5,52.8,30.19,South,182,0.0,3.0,41,0.00,,,0.00,201,HR-IXPWINDi_r2_v1.2.,2013-06-20 18:38:00,
2013-06-20 14:43:00,78.5,50.7,30.19,South,182,1.0,3.0,38,0.00,,,0.00,848,HR-IXPWINDi_r2_v1.2.,2013-06-20 18:43:00,
2013-06-20 14:48:00,78.5,52.1,30.19,South,182,0.0,3.0,40,0.00,,,0.00,887,HR-IXPWINDi_r2_v1.2.,2013-06-20 18:48:00,
2013-06-20 14:53:00,78.6,51.5,30.18,South,182,0.0,2.0,39,0.00,,,0.00,850,HR-IXPWINDi_r2_v1.2.,2013-06-20 18:53:00,
2013-06-20 14:58:00,79.0,53.3,30.18,South,182,0.0,2.0,41,0.00,,,0.00,843,HR-IXPWINDi_r2_v1.2.,2013-06-20 18:58:00,
2013-06-20 15:04:00,78.3,51.3,30.18,South,172,0.0,3.0,39,0.00,,,0.00,871,HR-IXPWINDi_r2_v1.2.,2013-06-20 19:04:00,
2013-06-20 15:09:00,78.3,50.6,30.18,South,181,0.0,3.0,38,0.00,,,0.00,354,HR-IXPWINDi_r2_v1.2.,2013-06-20 19:09:00,
2013-06-20 15:14:00,78.8,53.7,30.18,West,265,0.0,2.0,42,0.00,,,0.00,150,HR-IXPWINDi_r2_v1.2.,2013-06-20 19:14:00,
2013-06-20 15:19:00,78.6,51.5,30.18,West,275,0.0,2.0,39,0.00,,,0.00,836,HR-IXPWINDi_r2_v1.2.,2013-06-20 19:19:00,
2013-06-20 15:25:00,79.4,52.9,30.18,WSW,258,0.0,2.0,40,0.00,,,0.00,845,HR-IXPWINDi_r2_v1.2.,2013-06-20 19:25:00,
2013-06-20 15:30:00,79.6,51.7,30.18,SW,223,1.0,2.0,38,0.00,,,0.00,846,HR-IXPWINDi_r2_v1.2.,2013-06-20 19:30:00,
2013-06-20 15:35:00,78.8,53.1,30.18,South,175,3.0,3.0,41,0.00,,,0.00,792,HR-IXPWINDi_r2_v1.2.,2013-06-20 19:35:00,
2013-06-20 15:40:00,78.3,52.6,30.18,South,176,0.0,3.0,41,0.00,,,0.00,176,HR-IXPWINDi_r2_v1.2.,2013-06-20 19:40:00,
2013-06-20 15:45:00,78.6,55.4,30.18,South,175,0.0,3.0,45,0.00,,,0.00,167,HR-IXPWINDi_r2_v1.2.,2013-06-20 19:45:00,
2013-06-20 15:51:00,78.6,57.2,30.18,South,175,0.0,1.0,48,0.00,,,0.00,790,HR-IXPWINDi_r2_v1.2.,2013-06-20 19:51:00,
2013-06-20 15:56:00,78.5,56.6,30.18,South,175,0.0,1.0,47,0.00,,,0.00,746,HR-IXPWINDi_r2_v1.2.,2013-06-20 19:56:00,
2013-06-20 16:01:00,79.2,55.4,30.18,South,176,0.0,1.0,44,0.00,,,0.00,713,HR-IXPWINDi_r2_v1.2.,2013-06-20 20:01:00,
2013-06-20 16:07:00,79.2,57.8,30.18,South,176,0.0,1.0,48,0.00,,,0.00,713,HR-IXPWINDi_r2_v1.2.,2013-06-20 20:07:00,
2013-06-20 16:12:00,79.0,55.8,30.18,South,175,0.0,5.0,45,0.00,,,0.00,651,HR-IXPWINDi_r2_v1.2.,2013-06-20 20:12:00,
2013-06-20 16:17:00,78.6,57.2,30.18,South,174,0.0,5.0,48,0.00,,,0.00,653,HR-IXPWINDi_r2_v1.2.,2013-06-20 20:17:00,
2013-06-20 16:22:00,78.3,59.2,30.17,South,171,1.0,5.0,52,0.00,,,0.00,653,HR-IXPWINDi_r2_v1.2.,2013-06-20 20:22:00,
2013-06-20 16:27:00,77.7,57.0,30.17,SSE,168,3.0,5.0,49,0.00,,,0.00,111,HR-IXPWINDi_r2_v1.2.,2013-06-20 20:27:00,
2013-06-20 16:33:00,76.5,57.0,30.17,SSE,168,1.0,5.0,51,0.00,,,0.00,118,HR-IXPWINDi_r2_v1.2.,2013-06-20 20:33:00,
2013-06-20 16:38:00,76.5,57.5,30.17,SSE,168,0.0,5.0,52,0.00,,,0.00,614,HR-IXPWINDi_r2_v1.2.,2013-06-20 20:38:00,
2013-06-20 16:43:00,76.7,56.6,30.17,South,179,0.0,3.0,50,0.00,,,0.00,614,HR-IXPWINDi_r2_v1.2.,2013-06-20 20:43:00,
2013-06-20 16:48:00,77.0,56.9,30.17,South,179,0.0,3.0,50,0.00,,,0.00,139,HR-IXPWINDi_r2_v1.2.,2013-06-20 20:48:00,
2013-06-20 16:54:00,76.8,57.3,30.17,NNW,333,0.0,2.0,51,0.00,,,0.00,134,HR-IXPWINDi_r2_v1.2.,2013-06-20 20:54:00,
2013-06-20 16:59:00,76.8,56.1,30.17,SSW,202,3.0,5.0,49,0.00,,,0.00,216,HR-IXPWINDi_r2_v1.2.,2013-06-20 20:59:00,
2013-06-20 17:04:00,76.5,56.4,30.17,SSE,160,2.0,5.0,50,0.00,,,0.00,141,HR-IXPWINDi_r2_v1.2.,2013-06-20 21:04:00,
2013-06-20 17:09:00,76.3,56.8,30.17,SSE,158,0.0,5.0,51,0.00,,,0.00,100,HR-IXPWINDi_r2_v1.2.,2013-06-20 21:09:00,
2013-06-20 17:14:00,76.0,56.0,30.17,SSE,158,2.0,4.0,50,0.00,,,0.00,65,HR-IXPWINDi_r2_v1.2.,2013-06-20 21:14:00,
2013-06-20 17:20:00,75.6,56.2,30.17,SSE,157,3.0,4.0,51,0.00,,,0.00,70,HR-IXPWINDi_r2_v1.2.,2013-06-20 21:20:00,
2013-06-20 17:25:00,75.3,56.4,30.17,SSE,157,1.0,3.0,52,0.00,,,0.00,88,HR-IXPWINDi_r2_v1.2.,2013-06-20 21:25:00,
2013-06-20 17:30:00,75.1,56.2,30.17,SSE,158,1.0,3.0,52,0.00,,,0.00,84,HR-IXPWINDi_r2_v1.2.,2013-06-20 21:30:00,
2013-06-20 17:35:00,74.7,56.4,30.17,SSE,157,1.0,3.0,53,0.00,,,0.00,106,HR-IXPWINDi_r2_v1.2.,2013-06-20 21:35:00,
2013-06-20 17:40:00,74.7,55.9,30.17,SSE,157,0.0,3.0,52,0.00,,,0.00,84,HR-IXPWINDi_r2_v1.2.,2013-06-20 21:40:00,
2013-06-20 17:46:00,74.7,55.9,30.17,South,174,2.0,4.0,52,0.00,,,0.00,62,HR-IXPWINDi_r2_v1.2.,2013-06-20 21:46:00,
2013-06-20 17:51:00,74.6,56.8,30.17,South,174,0.0,4.0,54,0.00,,,0.00,67,HR-IXPWINDi_r2_v1.2.,2013-06-20 21:51:00,
2013-06-20 17:56:00,74.4,56.1,30.17,South,174,1.0,3.0,53,0.00,,,0.00,77,HR-IXPWINDi_r2_v1.2.,2013-06-20 21:56:00,
2013-06-20 18:01:00,74.2,55.9,30.17,South,172,1.0,5.0,53,0.00,,,0.00,83,HR-IXPWINDi_r2_v1.2.,2013-06-20 22:01:00,
2013-06-20 18:06:00,74.0,56.3,30.17,South,172,2.0,5.0,54,0.00,,,0.00,44,HR-IXPWINDi_r2_v1.2.,2013-06-20 22:06:00,
2013-06-20 18:12:00,74.0,56.8,30.17,South,172,2.0,3.0,55,0.00,,,0.00,39,HR-IXPWINDi_r2_v1.2.,2013-06-20 22:12:00,
2013-06-20 18:17:00,74.0,56.3,30.17,South,172,0.0,3.0,54,0.00,,,0.00,37,HR-IXPWINDi_r2_v1.2.,2013-06-20 22:17:00,
2013-06-20 18:22:00,74.0,56.3,30.18,South,172,2.0,3.0,54,0.00,,,0.00,33,HR-IXPWINDi_r2_v1.2.,2013-06-20 22:22:00,
2013-06-20 18:28:00,73.7,55.5,30.18,South,169,2.0,5.0,53,0.00,,,0.00,32,HR-IXPWINDi_r2_v1.2.,2013-06-20 22:28:00,
2013-06-20 18:33:00,73.5,55.8,30.18,South,171,0.0,5.0,54,0.00,,,0.00,26,HR-IXPWINDi_r2_v1.2.,2013-06-20 22:33:00,
2013-06-20 18:38:00,73.2,56.0,30.18,South,171,2.0,3.0,55,0.00,,,0.00,25,HR-IXPWINDi_r2_v1.2.,2013-06-20 22:38:00,
2013-06-20 18:43:00,73.0,55.8,30.18,South,171,2.0,3.0,55,0.00,,,0.00,23,HR-IXPWINDi_r2_v1.2.,2013-06-20 22:43:00,
2013-06-20 18:48:00,72.8,55.6,30.18,South,171,2.0,3.0,55,0.00,,,0.00,19,HR-IXPWINDi_r2_v1.2.,2013-06-20 22:48:00,
2013-06-20 18:53:00,72.7,55.6,30.18,South,171,1.0,3.0,55,0.00,,,0.00,18,HR-IXPWINDi_r2_v1.2.,2013-06-20 22:53:00,
2013-06-20 18:58:00,72.5,55.4,30.18,South,171,3.0,3.0,55,0.00,,,0.00,18,HR-IXPWINDi_r2_v1.2.,2013-06-20 22:58:00,
2013-06-20 19:04:00,72.3,55.2,30.18,South,171,1.0,3.0,55,0.00,,,0.00,18,HR-IXPWINDi_r2_v1.2.,2013-06-20 23:04:00,
2013-06-20 19:09:00,72.1,55.0,30.18,South,171,1.0,3.0,55,0.00,,,0.00,16,HR-IXPWINDi_r2_v1.2.,2013-06-20 23:09:00,
2013-06-20 19:14:00,72.0,54.9,30.18,South,171,1.0,3.0,55,0.00,,,0.00,14,HR-IXPWINDi_r2_v1.2.,2013-06-20 23:14:00,
2013-06-20 19:19:00,71.8,55.2,30.18,South,169,2.0,3.0,56,0.00,,,0.00,12,HR-IXPWINDi_r2_v1.2.,2013-06-20 23:19:00,
2013-06-20 19:24:00,71.6,55.0,30.18,South,171,2.0,3.0,56,0.00,,,0.00,12,HR-IXPWINDi_r2_v1.2.,2013-06-20 23:24:00,
2013-06-20 19:30:00,71.5,54.9,30.18,South,169,2.0,3.0,56,0.00,,,0.00,12,HR-IXPWINDi_r2_v1.2.,2013-06-20 23:30:00,
2013-06-20 19:35:00,71.5,54.9,30.19,South,169,2.0,3.0,56,0.00,,,0.00,11,HR-IXPWINDi_r2_v1.2.,2013-06-20 23:35:00,
2013-06-20 19:40:00,71.3,54.7,30.19,South,169,1.0,3.0,56,0.00,,,0.00,11,HR-IXPWINDi_r2_v1.2.,2013-06-20 23:40:00,
2013-06-20 19:45:00,71.1,54.6,30.19,South,171,2.0,3.0,56,0.00,,,0.00,9,HR-IXPWINDi_r2_v1.2.,2013-06-20 23:45:00,
2013-06-20 19:51:00,70.8,54.8,30.19,South,169,1.0,3.0,57,0.00,,,0.00,7,HR-IXPWINDi_r2_v1.2.,2013-06-20 23:51:00,
2013-06-20 19:56:00,70.6,54.6,30.19,South,169,2.0,3.0,57,0.00,,,0.00,7,HR-IXPWINDi_r2_v1.2.,2013-06-20 23:56:00,
2013-06-20 20:01:00,70.4,54.4,30.19,South,169,2.0,3.0,57,0.00,,,0.00,5,HR-IXPWINDi_r2_v1.2.,2013-06-21 00:01:00,
2013-06-20 20:06:00,70.3,54.3,30.19,South,169,2.0,3.0,57,0.00,,,0.00,5,HR-IXPWINDi_r2_v1.2.,2013-06-21 00:06:00,
2013-06-20 20:11:00,70.1,54.6,30.19,South,169,0.0,3.0,58,0.00,,,0.00,0,HR-IXPWINDi_r2_v1.2.,2013-06-21 00:11:00,
2013-06-20 20:17:00,69.8,54.3,30.19,South,169,2.0,3.0,58,0.00,,,0.00,0,HR-IXPWINDi_r2_v1.2.,2013-06-21 00:17:00,
2013-06-20 20:22:00,69.6,54.1,30.19,South,171,2.0,3.0,58,0.00,,,0.00,0,HR-IXPWINDi_r2_v1.2.,2013-06-21 00:22:00,
2013-06-20 20:27:00,69.4,53.9,30.19,South,169,2.0,3.0,58,0.00,,,0.00,0,HR-IXPWINDi_r2_v1.2.,2013-06-21 00:27:00,
2013-06-20 20:32:00,69.1,53.6,30.19,South,171,2.0,3.0,58,0.00,,,0.00,0,HR-IXPWINDi_r2_v1.2.,2013-06-21 00:32:00,
2013-06-20 20:37:00,68.9,53.9,30.19,South,171,2.0,3.0,59,0.00,,,0.00,0,HR-IXPWINDi_r2_v1.2.,2013-06-21 00:37:00,
2013-06-20 20:42:00,68.8,53.8,30.19,South,171,2.0,3.0,59,0.00,,,0.00,0,HR-IXPWINDi_r2_v1.2.,2013-06-21 00:42:00,
2013-06-20 20:47:00,68.4,53.5,30.19,South,169,0.0,3.0,59,0.00,,,0.00,0,HR-IXPWINDi_r2_v1.2.,2013-06-21 00:47:00,
2013-06-20 20:52:00,68.4,53.9,30.19,South,169,2.0,3.0,60,0.00,,,0.00,0,HR-IXPWINDi_r2_v1.2.,2013-06-21 00:52:00,
2013-06-20 20:58:00,68.1,53.6,30.19,South,169,2.0,3.0,60,0.00,,,0.00,0,HR-IXPWINDi_r2_v1.2.,2013-06-21 00:58:00,
2013-06-20 21:03:00,67.9,53.9,30.19,South,169,2.0,3.0,61,0.00,,,0.00,0,HR-IXPWINDi_r2_v1.2.,2013-06-21 01:03:00,
2013-06-20 21:08:00,67.8,53.8,30.19,South,171,2.0,3.0,61,0.00,,,0.00,0,HR-IXPWINDi_r2_v1.2.,2013-06-21 01:08:00,
2013-06-20 21:13:00,67.6,53.6,30.19,South,169,1.0,2.0,61,0.00,,,0.00,0,HR-IXPWINDi_r2_v1.2.,2013-06-21 01:13:00,
2013-06-20 21:18:00,67.6,53.6,30.19,South,171,1.0,3.0,61,0.00,,,0.00,0,HR-IXPWINDi_r2_v1.2.,2013-06-21 01:18:00,
2013-06-20 21:24:00,67.4,53.9,30.20,South,169,0.0,3.0,62,0.00,,,0.00,0,HR-IXPWINDi_r2_v1.2.,2013-06-21 01:24:00,
2013-06-20 21:29:00,67.3,53.8,30.20,South,169,0.0,2.0,62,0.00,,,0.00,0,HR-IXPWINDi_r2_v1.2.,2013-06-21 01:29:00,
2013-06-20 21:34:00,67.1,53.6,30.20,South,171,1.0,2.0,62,0.00,,,0.00,0,HR-IXPWINDi_r2_v1.2.,2013-06-21 01:34:00,
2013-06-20 21:39:00,66.9,53.4,30.20,South,169,0.0,2.0,62,0.00,,,0.00,0,HR-IXPWINDi_r2_v1.2.,2013-06-21 01:39:00,
2013-06-20 21:44:00,66.8,53.3,30.20,South,169,0.0,2.0,62,0.00,,,0.00,0,HR-IXPWINDi_r2_v1.2.,2013-06-21 01:44:00,
2013-06-20 21:49:00,66.6,53.6,30.20,South,169,0.0,2.0,63,0.00,,,0.00,0,HR-IXPWINDi_r2_v1.2.,2013-06-21 01:49:00,
2013-06-20 21:54:00,66.4,53.8,30.20,South,169,1.0,1.0,64,0.00,,,0.00,0,HR-IXPWINDi_r2_v1.2.,2013-06-21 01:54:00,
2013-06-20 22:00:00,66.3,53.7,30.20,SSE,162,0.0,2.0,64,0.00,,,0.00,0,HR-IXPWINDi_r2_v1.2.,2013-06-21 02:00:00,
2013-06-20 22:05:00,66.1,53.9,30.20,South,169,1.0,2.0,65,0.00,,,0.00,0,HR-IXPWINDi_r2_v1.2.,2013-06-21 02:05:00,
2013-06-20 22:10:00,66.0,53.4,30.20,South,169,0.0,2.0,64,0.00,,,0.00,0,HR-IXPWINDi_r2_v1.2.,2013-06-21 02:10:00,
2013-06-20 22:15:00,65.8,53.2,30.20,South,169,0.0,2.0,64,0.00,,,0.00,0,HR-IXPWINDi_r2_v1.2.,2013-06-21 02:15:00,
2013-06-20 22:21:00,65.8,53.7,30.20,South,169,0.0,0.0,65,0.00,,,0.00,0,HR-IXPWINDi_r2_v1.2.,2013-06-21 02:21:00,
2013-06-20 22:26:00,65.6,53.5,30.20,South,169,1.0,1.0,65,0.00,,,0.00,0,HR-IXPWINDi_r2_v1.2.,2013-06-21 02:26:00,
2013-06-20 22:31:00,65.6,53.5,30.20,South,171,0.0,1.0,65,0.00,,,0.00,0,HR-IXPWINDi_r2_v1.2.,2013-06-21 02:31:00,
2013-06-20 22:36:00,65.5,53.4,30.21,South,169,0.0,1.0,65,0.00,,,0.00,0,HR-IXPWINDi_r2_v1.2.,2013-06-21 02:36:00,
2013-06-20 22:41:00,65.5,53.8,30.21,South,171,0.0,0.0,66,0.00,,,0.00,0,HR-IXPWINDi_r2_v1.2.,2013-06-21 02:41:00,
2013-06-20 22:46:00,65.3,53.6,30.21,South,169,0.0,0.0,66,0.00,,,0.00,0,HR-IXPWINDi_r2_v1.2.,2013-06-21 02:46:00,
2013-06-20 22:52:00,65.2,53.9,30.21,South,169,0.0,0.0,67,0.00,,,0.00,0,HR-IXPWINDi_r2_v1.2.,2013-06-21 02:52:00,
2013-06-20 22:57:00,65.0,54.1,30.21,South,169,0.0,0.0,68,0.00,,,0.00,0,HR-IXPWINDi_r2_v1.2.,2013-06-21 02:57:00,
2013-06-20 23:02:00,65.0,54.1,30.21,South,171,0.0,0.0,68,0.00,,,0.00,0,HR-IXPWINDi_r2_v1.2.,2013-06-21 03:02:00,
2013-06-20 23:07:00,64.8,54.3,30.21,South,169,0.0,0.0,69,0.00,,,0.00,0,HR-IXPWINDi_r2_v1.2.,2013-06-21 03:07:00,
2013-06-20 23:12:00,64.7,54.6,30.21,South,171,0.0,0.0,70,0.00,,,0.00,0,HR-IXPWINDi_r2_v1.2.,2013-06-21 03:12:00,
2013-06-20 23:17:00,64.5,54.8,30.21,South,169,0.0,0.0,71,0.00,,,0.00,0,HR-IXPWINDi_r2_v1.2.,2013-06-21 03:17:00,
2013-06-20 23:22:00,64.3,54.6,30.21,South,169,0.0,0.0,71,0.00,,,0.00,0,HR-IXPWINDi_r2_v1.2.,2013-06-21 03:22:00,
2013-06-20 23:28:00,64.2,54.9,30.21,South,171,0.0,0.0,72,0.00,,,0.00,0,HR-IXPWINDi_r2_v1.2.,2013-06-21 03:28:00,
2013-06-20 23:33:00,64.0,54.7,30.21,South,171,0.0,0.0,72,0.00,,,0.00,0,HR-IXPWINDi_r2_v1.2.,2013-06-21 03:33:00,
2013-06-20 23:38:00,63.9,54.6,30.21,South,171,0.0,0.0,72,0.00,,,0.00,0,HR-IXPWINDi_r2_v1.2.,2013-06-21 03:38:00,
2013-06-20 23:43:00,63.5,54.3,30.21,South,171,0.0,0.0,72,0.00,,,0.00,0,HR-IXPWINDi_r2_v1.2.,2013-06-21 03:43:00,
2013-06-20 23:48:00,63.4,54.2,30.21,South,169,0.0,0.0,72,0.00,,,0.00,0,HR-IXPWINDi_r2_v1.2.,2013-06-21 03:48:00,
2013-06-20 23:54:00,63.2,54.0,30.21,South,169,0.0,0.0,72,0.00,,,0.00,0,HR-IXPWINDi_r2_v1.2.,2013-06-21 03:54:00,
2013-06-20 23:59:00,62.9,54.1,30.21,South,169,0.0,0.0,73,0.00,,,0.00,0,HR-IXPWINDi_r2_v1.2.,2013-06-21 03:59:00,